createdAt,value
2022-08-26T00:01:54.440Z,7.20
2022-08-26T00:04:26.506Z,14.98
2022-08-26T00:06:55.665Z,7.18
2022-08-26T00:09:23.106Z,9.25
2022-08-26T00:11:52.030Z,9.10
2022-08-26T00:14:18.486Z,6.03
2022-08-26T00:16:49.869Z,5.65
2022-08-26T00:19:25.687Z,9.32
2022-08-26T00:21:53.476Z,10.43
2022-08-26T00:24:22.332Z,9.40
2022-08-26T00:26:50.587Z,8.55
2022-08-26T00:29:21.230Z,3.22
2022-08-26T00:31:54.716Z,5.85
2022-08-26T00:34:21.144Z,3.28
2022-08-26T00:36:52.844Z,4.18
2022-08-26T00:39:21.957Z,2.75
2022-08-26T00:41:50.915Z,4.28
2022-08-26T00:44:17.874Z,4.90
2022-08-26T00:46:53.583Z,3.75
2022-08-26T00:49:27.204Z,2.50
2022-08-26T00:52:03.275Z,3.55
2022-08-26T00:54:38.553Z,5.00
2022-08-26T00:57:16.375Z,5.95
2022-08-26T00:59:49.119Z,5.10
2022-08-26T01:02:20.998Z,3.80
2022-08-26T01:04:54.226Z,9.70
2022-08-26T01:07:22.360Z,5.85
2022-08-26T01:09:52.083Z,8.48
2022-08-26T01:12:21.964Z,4.53
2022-08-26T01:14:52.228Z,8.98
2022-08-26T01:17:28.743Z,5.47
2022-08-26T01:20:10.044Z,7.18
2022-08-26T01:23:08.937Z,5.85
2022-08-26T01:25:43.106Z,3.83
2022-08-26T01:28:22.995Z,5.38
2022-08-26T01:30:53.027Z,3.22
2022-08-26T01:33:26.591Z,4.22
2022-08-26T01:35:53.465Z,2.58
2022-08-26T01:38:20.285Z,4.60
2022-08-26T01:40:51.256Z,6.95
2022-08-26T01:43:25.881Z,7.13
2022-08-26T01:45:55.936Z,5.60
2022-08-26T01:48:28.195Z,7.93
2022-08-26T01:50:58.503Z,10.15
2022-08-26T01:53:26.866Z,11.80
2022-08-26T01:56:03.499Z,11.73
2022-08-26T01:58:38.971Z,12.30
2022-08-26T02:01:07.381Z,13.50
2022-08-26T02:03:50.834Z,9.27
2022-08-26T02:06:19.676Z,9.73
2022-08-26T02:08:56.375Z,6.53
2022-08-26T02:11:25.522Z,14.80
2022-08-26T02:13:58.431Z,10.57
2022-08-26T02:16:27.313Z,11.68
2022-08-26T02:18:55.713Z,11.75
2022-08-26T02:21:25.069Z,7.40
2022-08-26T02:23:58.802Z,8.20
2022-08-26T02:26:30.893Z,12.05
2022-08-26T02:29:15.797Z,9.90
2022-08-26T02:31:42.262Z,10.40
2022-08-26T02:34:21.808Z,8.02
2022-08-26T02:36:49.318Z,4.15
2022-08-26T02:39:22.355Z,13.25
2022-08-26T02:41:51.364Z,3.33
2022-08-26T02:44:17.962Z,7.60
2022-08-26T02:46:47.374Z,3.85
2022-08-26T02:49:20.397Z,3.83
2022-08-26T02:51:49.770Z,4.00
2022-08-26T02:54:23.689Z,7.05
2022-08-26T02:56:51.279Z,5.90
2022-08-26T02:59:18.242Z,5.90
2022-08-26T03:01:49.012Z,4.22
2022-08-26T03:04:28.817Z,11.88
2022-08-26T03:06:59.878Z,9.45
2022-08-26T03:09:33.821Z,5.68
2022-08-26T03:12:00.934Z,3.10
2022-08-26T03:14:33.849Z,6.97
2022-08-26T03:17:00.347Z,7.28
2022-08-26T03:19:39.859Z,8.77
2022-08-26T03:22:14.755Z,3.15
2022-08-26T03:24:48.841Z,3.95
2022-08-26T03:27:15.810Z,4.38
2022-08-26T03:30:08.855Z,5.25
2022-08-26T03:32:38.377Z,10.63
2022-08-26T03:35:14.843Z,5.18
2022-08-26T03:37:41.377Z,6.75
2022-08-26T03:40:11.567Z,6.80
2022-08-26T03:42:40.356Z,15.52
2022-08-26T03:45:12.421Z,5.72
2022-08-26T03:47:40.507Z,4.93
2022-08-26T03:50:14.728Z,7.72
2022-08-26T03:52:43.998Z,10.88
2022-08-26T03:55:11.091Z,5.55
2022-08-26T03:57:40.181Z,7.68
2022-08-26T04:00:14.474Z,3.92
2022-08-26T04:02:46.743Z,5.38
2022-08-26T04:05:17.808Z,5.15
2022-08-26T04:07:48.612Z,6.03
2022-08-26T04:10:22.029Z,4.88
2022-08-26T04:12:55.346Z,6.30
2022-08-26T04:15:25.250Z,5.10
2022-08-26T04:17:54.379Z,5.13
2022-08-26T04:20:30.891Z,7.25
2022-08-26T04:23:00.197Z,3.42
2022-08-26T04:25:26.648Z,6.72
2022-08-26T04:27:53.085Z,4.82
2022-08-26T04:30:20.127Z,3.28
2022-08-26T04:32:48.715Z,5.65
2022-08-26T04:35:15.103Z,4.28
2022-08-26T04:37:42.979Z,4.13
2022-08-26T04:40:10.480Z,5.35
2022-08-26T04:42:37.045Z,4.78
2022-08-26T04:45:05.764Z,6.97
2022-08-26T04:47:42.957Z,7.25
2022-08-26T04:50:10.918Z,5.57
2022-08-26T04:52:45.920Z,5.55
2022-08-26T04:55:12.598Z,6.18
2022-08-26T04:57:40.487Z,3.53
2022-08-26T05:00:12.847Z,10.00
2022-08-26T05:02:40.886Z,5.47
2022-08-26T05:05:07.718Z,3.95
2022-08-26T05:07:41.922Z,7.45
2022-08-26T05:10:11.373Z,7.20
2022-08-26T05:12:43.041Z,4.75
2022-08-26T05:15:11.139Z,5.72
2022-08-26T05:17:37.995Z,3.83
2022-08-26T05:20:06.905Z,9.70
2022-08-26T05:22:40.987Z,4.38
2022-08-26T05:25:10.439Z,8.50
2022-08-26T05:27:37.619Z,7.30
2022-08-26T05:30:06.647Z,3.75
2022-08-26T05:32:33.162Z,5.63
2022-08-26T05:34:59.654Z,7.80
2022-08-26T05:37:27.141Z,8.27
2022-08-26T05:39:53.608Z,6.00
2022-08-26T05:42:20.047Z,3.78
2022-08-26T05:44:55.773Z,3.80
2022-08-26T05:47:26.189Z,3.85
2022-08-26T05:49:53.046Z,3.90
2022-08-26T05:52:19.984Z,3.67
2022-08-26T05:54:47.673Z,5.50
2022-08-26T05:57:16.610Z,9.40
2022-08-26T05:59:45.091Z,5.43
2022-08-26T06:02:19.028Z,4.78
2022-08-26T06:04:45.946Z,6.35
2022-08-26T06:07:12.496Z,9.10
2022-08-26T06:09:46.981Z,10.48
2022-08-26T06:12:15.790Z,8.10
2022-08-26T06:14:50.976Z,17.63
2022-08-26T06:17:17.370Z,8.40
2022-08-26T06:19:44.262Z,10.00
2022-08-26T06:22:30.670Z,5.35
2022-08-26T06:25:18.010Z,9.65
2022-08-26T06:27:44.518Z,6.53
2022-08-26T06:30:14.528Z,6.85
2022-08-26T06:32:41.707Z,6.55
2022-08-26T06:35:12.095Z,10.38
2022-08-26T06:37:39.072Z,9.07
2022-08-26T06:40:08.769Z,10.73
2022-08-26T06:42:47.005Z,8.52
2022-08-26T06:45:13.821Z,8.05
2022-08-26T06:47:40.326Z,11.38
2022-08-26T06:50:07.084Z,13.55
2022-08-26T06:52:36.265Z,14.48
2022-08-26T06:55:03.757Z,7.70
2022-08-26T06:57:41.133Z,14.57
2022-08-26T07:00:10.449Z,14.52
2022-08-26T07:02:46.872Z,11.77
2022-08-26T07:05:13.735Z,10.80
2022-08-26T07:07:47.006Z,24.20
2022-08-26T07:10:14.815Z,8.48
2022-08-26T07:12:47.995Z,12.13
2022-08-26T07:15:15.041Z,12.55
2022-08-26T07:17:41.491Z,11.10
2022-08-26T07:20:16.038Z,12.80
2022-08-26T07:22:50.187Z,11.55
2022-08-26T07:25:16.782Z,7.55
2022-08-26T07:27:54.100Z,18.30
2022-08-26T07:30:24.859Z,11.75
2022-08-26T07:32:51.275Z,10.13
2022-08-26T07:35:17.951Z,7.32
2022-08-26T07:37:46.730Z,10.27
2022-08-26T07:40:13.333Z,8.55
2022-08-26T07:42:42.720Z,6.38
2022-08-26T07:45:14.091Z,13.00
2022-08-26T07:47:40.556Z,17.08
2022-08-26T07:50:08.094Z,20.08
2022-08-26T07:52:41.064Z,15.40
2022-08-26T07:55:13.372Z,15.95
2022-08-26T07:57:46.044Z,25.58
2022-08-26T08:00:16.571Z,14.73
2022-08-26T08:02:53.061Z,9.95
2022-08-26T08:05:33.272Z,16.02
2022-08-26T08:08:27.304Z,9.45
2022-08-26T08:10:56.036Z,11.88
2022-08-26T08:13:32.104Z,11.13
2022-08-26T08:15:58.586Z,9.43
2022-08-26T08:18:25.026Z,9.85
2022-08-26T08:20:54.686Z,8.18
2022-08-26T08:23:38.698Z,13.88
2022-08-26T08:26:11.042Z,11.98
2022-08-26T08:28:38.463Z,17.55
2022-08-26T08:31:05.971Z,16.83
2022-08-26T08:33:40.091Z,13.70
2022-08-26T08:36:07.642Z,17.92
2022-08-26T08:38:37.073Z,12.77
2022-08-26T08:41:03.596Z,12.30
2022-08-26T08:43:40.279Z,11.50
2022-08-26T08:46:12.249Z,12.32
2022-08-26T08:48:43.660Z,13.55
2022-08-26T08:51:13.884Z,9.68
2022-08-26T08:53:54.650Z,22.45
2022-08-26T08:56:30.304Z,8.93
2022-08-26T08:59:07.360Z,12.05
2022-08-26T09:01:36.459Z,7.93
2022-08-26T09:04:22.868Z,8.80
2022-08-26T09:06:54.522Z,9.20
2022-08-26T09:09:35.116Z,13.77
2022-08-26T09:12:04.965Z,7.95
2022-08-26T09:14:38.121Z,9.60
2022-08-26T09:17:13.268Z,7.40
2022-08-26T09:19:52.111Z,13.13
2022-08-26T09:22:34.090Z,8.45
2022-08-26T09:25:08.123Z,5.18
2022-08-26T09:27:50.477Z,12.20
2022-08-26T09:30:28.016Z,12.63
2022-08-26T09:33:01.474Z,7.03
2022-08-26T09:35:37.026Z,10.00
2022-08-26T09:38:28.141Z,10.85
2022-08-26T09:41:05.154Z,19.88
2022-08-26T09:43:37.465Z,12.77
2022-08-26T09:46:25.227Z,13.30
2022-08-26T09:48:53.073Z,7.38
2022-08-26T09:51:23.258Z,11.50
2022-08-26T09:53:58.681Z,12.77
2022-08-26T09:56:46.175Z,17.02
2022-08-26T09:59:13.276Z,9.98
2022-08-26T10:01:44.818Z,15.20
2022-08-26T10:04:21.114Z,6.55
2022-08-26T10:07:07.163Z,20.83
2022-08-26T10:09:40.580Z,10.18
2022-08-26T10:12:13.279Z,9.25
2022-08-26T10:14:57.180Z,8.57
2022-08-26T10:17:47.532Z,8.43
2022-08-26T10:20:41.157Z,6.07
2022-08-26T10:23:17.958Z,7.88
2022-08-26T10:26:05.081Z,4.85
2022-08-26T10:28:33.100Z,8.02
2022-08-26T10:31:15.978Z,12.65
2022-08-26T10:33:42.484Z,10.15
2022-08-26T10:36:39.303Z,20.67
2022-08-26T10:39:37.847Z,14.32
2022-08-26T10:42:13.736Z,9.43
2022-08-26T10:44:44.260Z,12.93
2022-08-26T10:47:22.289Z,7.60
2022-08-26T10:49:52.309Z,5.57
2022-08-26T10:52:41.253Z,8.48
2022-08-26T10:55:40.521Z,5.70
2022-08-26T10:58:31.656Z,10.52
2022-08-26T11:01:51.020Z,8.05
2022-08-26T11:04:38.988Z,9.57
2022-08-26T11:07:35.255Z,5.07
2022-08-26T11:10:24.474Z,7.22
2022-08-26T11:13:00.405Z,8.88
2022-08-26T11:15:28.051Z,9.23
2022-08-26T11:18:05.657Z,7.03
2022-08-26T11:20:55.264Z,9.43
2022-08-26T11:23:27.130Z,4.15
2022-08-26T11:26:03.275Z,7.00
2022-08-26T11:28:36.521Z,7.70
2022-08-26T11:31:05.391Z,3.95
2022-08-26T11:33:58.187Z,6.40
2022-08-26T11:36:49.015Z,11.88
2022-08-26T11:39:28.668Z,5.43
2022-08-26T11:42:15.997Z,6.70
2022-08-26T11:47:24.614Z,11.75
2022-08-26T11:50:09.912Z,10.27
2022-08-26T11:52:41.378Z,9.25
2022-08-26T11:55:17.053Z,7.10
2022-08-26T11:57:50.597Z,4.95
2022-08-26T12:00:21.180Z,9.55
2022-08-26T12:02:50.080Z,4.63
2022-08-26T12:05:30.836Z,4.70
2022-08-26T12:08:02.777Z,3.25
2022-08-26T12:10:33.936Z,3.38
2022-08-26T12:13:04.228Z,3.42
2022-08-26T12:15:33.299Z,3.75
2022-08-26T12:18:29.324Z,5.43
2022-08-26T12:21:35.288Z,6.43
2022-08-26T12:24:10.272Z,9.20
2022-08-26T12:26:37.105Z,5.22
2022-08-26T12:29:26.950Z,7.20
2022-08-26T12:32:13.217Z,6.00
2022-08-26T12:34:46.023Z,2.63
2022-08-26T12:37:18.895Z,7.93
2022-08-26T12:39:45.649Z,4.78
2022-08-26T12:42:12.087Z,13.10
2022-08-26T12:44:53.676Z,3.42
2022-08-26T12:47:42.878Z,6.38
2022-08-26T12:50:19.238Z,5.25
2022-08-26T12:52:56.267Z,5.10
2022-08-26T12:55:29.704Z,6.97
2022-08-26T12:58:15.956Z,8.65
2022-08-26T13:00:45.949Z,9.68
2022-08-26T13:03:35.109Z,5.10
2022-08-26T13:06:15.818Z,17.15
2022-08-26T13:11:18.587Z,5.00
2022-08-26T13:13:45.773Z,5.13
2022-08-26T13:16:14.588Z,9.48
2022-08-26T13:18:40.994Z,8.68
2022-08-26T13:21:25.369Z,9.63
2022-08-26T13:24:08.297Z,9.50
2022-08-26T13:26:35.654Z,5.57
2022-08-26T13:29:02.719Z,3.47
2022-08-26T13:31:35.432Z,9.65
2022-08-26T13:34:03.598Z,4.75
2022-08-26T13:36:34.843Z,4.88
2022-08-26T13:39:01.415Z,7.68
2022-08-26T13:41:34.345Z,7.55
2022-08-26T13:44:01.663Z,5.43
2022-08-26T13:46:35.427Z,3.55
2022-08-26T13:49:02.878Z,3.42
2022-08-26T13:51:36.408Z,4.18
2022-08-26T13:54:03.236Z,3.60
2022-08-26T13:56:39.373Z,6.93
2022-08-26T13:59:06.583Z,3.78
2022-08-26T14:01:40.449Z,9.88
2022-08-26T14:04:11.719Z,8.77
2022-08-26T14:06:46.330Z,6.75
2022-08-26T14:09:16.788Z,5.97
2022-08-26T14:11:50.905Z,3.30
2022-08-26T14:14:21.484Z,5.07
2022-08-26T14:16:58.774Z,3.20
2022-08-26T14:19:27.710Z,6.63
2022-08-26T14:21:54.168Z,3.42
2022-08-26T14:24:29.590Z,3.60
2022-08-26T14:26:56.092Z,3.53
2022-08-26T14:29:22.603Z,3.58
2022-08-26T14:31:49.028Z,5.15
2022-08-26T14:34:17.978Z,5.18
2022-08-26T14:36:44.355Z,3.55
2022-08-26T14:39:13.088Z,6.60
2022-08-26T14:42:03.398Z,3.50
2022-08-26T14:44:32.667Z,4.20
2022-08-26T14:47:08.418Z,3.42
2022-08-26T14:49:34.981Z,8.35
2022-08-26T14:52:02.014Z,7.82
2022-08-26T14:54:29.472Z,7.15
2022-08-26T14:57:04.047Z,3.95
2022-08-26T14:59:35.580Z,5.88
2022-08-26T15:02:02.881Z,4.30
2022-08-26T15:04:29.857Z,5.88
2022-08-26T15:07:05.418Z,3.80
2022-08-26T15:09:37.448Z,5.88
2022-08-26T15:12:04.884Z,5.78
2022-08-26T15:14:33.055Z,4.78
2022-08-26T15:17:00.427Z,7.88
2022-08-26T15:19:30.116Z,11.48
2022-08-26T15:22:03.907Z,20.85
2022-08-26T15:24:36.905Z,8.07
2022-08-26T15:27:03.533Z,10.38
2022-08-26T15:29:30.005Z,4.95
2022-08-26T15:31:58.501Z,11.60
2022-08-26T15:34:25.039Z,5.72
2022-08-26T15:36:51.423Z,11.75
2022-08-26T15:39:19.194Z,10.93
2022-08-26T15:41:46.427Z,8.48
2022-08-26T15:44:14.193Z,32.40
2022-08-26T15:46:40.956Z,12.00
2022-08-26T15:49:07.732Z,17.95
2022-08-26T15:51:47.497Z,18.73
2022-08-26T15:54:16.642Z,17.98
2022-08-26T15:56:50.481Z,11.90
2022-08-26T15:59:20.961Z,11.30
2022-08-26T16:01:54.549Z,16.80
2022-08-26T16:04:21.152Z,14.70
2022-08-26T16:06:56.468Z,12.40
2022-08-26T16:09:26.833Z,13.50
2022-08-26T16:12:01.487Z,16.63
2022-08-26T16:14:27.969Z,14.38
2022-08-26T16:17:01.489Z,11.75
2022-08-26T16:19:27.945Z,8.18
2022-08-26T16:22:07.507Z,16.40
2022-08-26T16:24:34.517Z,20.10
2022-08-26T16:27:12.539Z,14.00
2022-08-26T16:29:39.698Z,8.98
2022-08-26T16:32:15.483Z,13.90
2022-08-26T16:34:56.402Z,20.90
2022-08-26T16:37:29.505Z,16.45
2022-08-26T16:39:55.969Z,17.98
2022-08-26T16:42:22.419Z,26.30
2022-08-26T16:44:48.867Z,22.45
2022-08-26T16:47:16.245Z,24.05
2022-08-26T16:49:42.973Z,28.38
2022-08-26T16:52:10.986Z,15.70
2022-08-26T16:54:41.378Z,21.58
2022-08-26T16:57:09.752Z,15.35
2022-08-26T16:59:36.250Z,11.98
2022-08-26T17:02:02.963Z,14.05
2022-08-26T17:04:29.478Z,17.60
2022-08-26T17:06:56.588Z,12.82
2022-08-26T17:09:23.006Z,16.10
2022-08-26T17:11:50.651Z,18.75
2022-08-26T17:14:17.587Z,16.67
2022-08-26T17:16:44.616Z,16.00
2022-08-26T17:19:11.639Z,16.80
2022-08-26T17:21:46.576Z,13.13
2022-08-26T17:24:13.600Z,14.88
2022-08-26T17:26:52.621Z,16.25
2022-08-26T17:29:22.161Z,10.75
2022-08-26T17:31:55.569Z,18.13
2022-08-26T17:34:22.611Z,28.15
2022-08-26T17:36:52.004Z,32.28
2022-08-26T17:39:18.442Z,27.73
2022-08-26T17:41:44.969Z,33.13
2022-08-26T17:44:11.446Z,33.42
2022-08-26T17:46:38.540Z,31.85
2022-08-26T17:49:05.642Z,29.13
2022-08-26T17:51:39.590Z,29.83
2022-08-26T17:54:09.152Z,29.80
2022-08-26T17:56:44.579Z,27.92
2022-08-26T17:59:11.743Z,32.10
2022-08-26T18:01:46.644Z,29.58
2022-08-26T18:04:14.692Z,26.83
2022-08-26T18:06:49.616Z,27.33
2022-08-26T18:09:18.468Z,26.88
2022-08-26T18:11:51.599Z,25.75
2022-08-26T18:14:17.989Z,20.63
2022-08-26T18:16:44.366Z,34.55
2022-08-26T18:19:10.818Z,27.67
2022-08-26T18:21:57.596Z,30.15
2022-08-26T18:24:24.480Z,28.58
2022-08-26T18:26:51.029Z,24.38
2022-08-26T18:29:19.801Z,21.65
2022-08-26T18:31:53.616Z,23.35
2022-08-26T18:34:20.918Z,28.75
2022-08-26T18:36:56.680Z,22.13
2022-08-26T18:39:25.420Z,22.10
2022-08-26T18:41:59.590Z,21.60
2022-08-26T18:44:26.061Z,26.83
2022-08-26T18:47:01.614Z,17.35
2022-08-26T18:49:32.850Z,16.02
2022-08-26T18:52:00.453Z,15.27
2022-08-26T18:54:26.940Z,17.58
2022-08-26T18:56:56.407Z,16.40
2022-08-26T18:59:28.804Z,19.35
2022-08-26T19:01:57.655Z,16.00
2022-08-26T19:04:26.611Z,16.67
2022-08-26T19:06:53.626Z,10.95
2022-08-26T19:09:22.352Z,17.75
2022-08-26T19:11:50.020Z,12.38
2022-08-26T19:14:16.817Z,13.75
2022-08-26T19:16:46.201Z,13.07
2022-08-26T19:19:14.745Z,13.05
2022-08-26T19:22:03.645Z,9.15
2022-08-26T19:24:30.065Z,18.00
2022-08-26T19:26:59.376Z,17.48
2022-08-26T19:29:34.436Z,12.20
2022-08-26T19:32:01.972Z,11.55
2022-08-26T19:34:28.572Z,10.38
2022-08-26T19:37:03.659Z,11.30
2022-08-26T19:39:30.189Z,10.45
2022-08-26T19:42:06.760Z,16.80
2022-08-26T19:44:51.784Z,8.52
2022-08-26T19:47:18.381Z,9.05
2022-08-26T19:49:45.651Z,13.07
2022-08-26T19:52:12.622Z,9.77
2022-08-26T19:54:39.826Z,9.93
2022-08-26T19:57:06.453Z,11.55
2022-08-26T19:59:36.199Z,12.63
2022-08-26T20:02:11.754Z,9.35
2022-08-26T20:04:41.802Z,12.73
2022-08-26T20:07:18.948Z,12.23
2022-08-26T20:09:47.319Z,11.02
2022-08-26T20:12:21.679Z,13.25
2022-08-26T20:14:48.147Z,15.02
2022-08-26T20:17:16.010Z,10.85
2022-08-26T20:20:01.067Z,15.43
2022-08-26T20:22:28.097Z,14.90
2022-08-26T20:24:54.628Z,12.10
2022-08-26T20:27:34.372Z,12.95
2022-08-26T20:30:09.261Z,13.63
2022-08-26T20:32:36.430Z,16.40
2022-08-26T20:35:04.091Z,10.27
2022-08-26T20:37:30.476Z,13.73
2022-08-26T20:39:57.338Z,10.95
2022-08-26T20:42:26.931Z,15.43
2022-08-26T20:44:54.520Z,16.15
2022-08-26T20:47:30.758Z,13.57
2022-08-26T20:49:57.309Z,12.85
2022-08-26T20:52:30.718Z,16.90
2022-08-26T20:55:04.252Z,22.50
2022-08-26T20:57:36.711Z,26.52
2022-08-26T21:00:05.589Z,10.30
2022-08-26T21:02:38.744Z,13.60
2022-08-26T21:05:06.066Z,31.52
2022-08-26T21:07:39.747Z,32.28
2022-08-26T21:10:06.587Z,34.25
2022-08-26T21:12:33.079Z,28.10
2022-08-26T21:14:59.571Z,19.58
2022-08-26T21:17:25.976Z,14.50
2022-08-26T21:19:55.372Z,12.18
2022-08-26T21:22:30.757Z,16.10
2022-08-26T21:24:57.190Z,13.80
2022-08-26T21:27:26.316Z,19.33
2022-08-26T21:29:56.709Z,14.65
2022-08-26T21:32:23.349Z,14.95
2022-08-26T21:34:54.815Z,13.43
2022-08-26T21:37:23.661Z,19.52
2022-08-26T21:39:57.069Z,13.80
2022-08-26T21:42:27.827Z,18.98
2022-08-26T21:44:56.815Z,15.20
2022-08-26T21:47:24.456Z,18.27
2022-08-26T21:49:51.624Z,14.55
2022-08-26T21:52:18.081Z,12.88
2022-08-26T21:54:49.913Z,12.05
2022-08-26T21:57:25.763Z,15.90
2022-08-26T21:59:52.583Z,17.50
2022-08-26T22:02:19.522Z,14.73
2022-08-26T22:04:48.834Z,17.48
2022-08-26T22:07:22.861Z,15.23
2022-08-26T22:09:50.033Z,14.57
2022-08-26T22:12:18.162Z,21.30
2022-08-26T22:14:45.505Z,18.90
2022-08-26T22:17:18.813Z,10.88
2022-08-26T22:19:45.860Z,13.57
2022-08-26T22:22:32.787Z,12.82
2022-08-26T22:25:02.346Z,11.75
2022-08-26T22:27:28.771Z,9.60
2022-08-26T22:29:55.549Z,14.07
2022-08-26T22:32:23.351Z,13.98
2022-08-26T22:34:49.833Z,12.50
2022-08-26T22:37:16.250Z,14.15
2022-08-26T22:39:42.737Z,15.13
2022-08-26T22:42:09.269Z,14.80
2022-08-26T22:44:36.948Z,14.63
2022-08-26T22:47:03.587Z,16.45
2022-08-26T22:49:30.470Z,19.30
2022-08-26T22:51:56.910Z,15.32
2022-08-26T22:54:25.935Z,15.60
2022-08-26T22:56:58.804Z,12.77
2022-08-26T22:59:25.244Z,24.50
2022-08-26T23:01:51.719Z,15.57
2022-08-26T23:04:18.679Z,9.80
2022-08-26T23:06:47.459Z,11.90
2022-08-26T23:09:17.020Z,15.25
2022-08-26T23:11:50.838Z,14.27
2022-08-26T23:14:20.826Z,19.42
2022-08-26T23:16:56.889Z,15.45
2022-08-26T23:19:23.868Z,14.57
2022-08-26T23:22:14.835Z,17.73
2022-08-26T23:24:41.470Z,9.02
2022-08-26T23:27:07.954Z,19.60
2022-08-26T23:29:35.683Z,17.35
2022-08-26T23:32:05.149Z,15.93
2022-08-26T23:34:50.392Z,20.13
2022-08-26T23:37:20.361Z,18.73
2022-08-26T23:39:48.255Z,17.70
2022-08-26T23:42:16.021Z,16.92
2022-08-26T23:44:44.875Z,11.73
2022-08-26T23:47:11.649Z,21.25
2022-08-26T23:49:38.141Z,15.85
2022-08-26T23:52:24.255Z,13.10
2022-08-26T23:54:52.347Z,16.23
2022-08-26T23:57:23.309Z,16.40
2022-08-26T23:59:53.057Z,15.97
